sensor_id;sensor_type;location;lat;lon;timestamp;P1;durP1;ratioP1;P2;durP2;ratioP2
50689;SDS011;71367;48.298;11.238;2023-08-31T00:01:13;6.43;;;4.25;;
50689;SDS011;71367;48.298;11.238;2023-08-31T00:16:17;6.28;;;3.90;;
50689;SDS011;71367;48.298;11.238;2023-08-31T00:31:20;5.70;;;4.60;;
50689;SDS011;71367;48.298;11.238;2023-08-31T00:46:25;9.95;;;5.35;;
50689;SDS011;71367;48.298;11.238;2023-08-31T01:01:32;11.30;;;7.20;;
50689;SDS011;71367;48.298;11.238;2023-08-31T01:16:42;13.25;;;7.28;;
50689;SDS011;71367;48.298;11.238;2023-08-31T01:31:48;10.25;;;6.80;;
50689;SDS011;71367;48.298;11.238;2023-08-31T01:46:52;9.15;;;6.25;;
50689;SDS011;71367;48.298;11.238;2023-08-31T02:01:59;6.78;;;5.53;;
50689;SDS011;71367;48.298;11.238;2023-08-31T02:17:05;7.85;;;6.20;;
50689;SDS011;71367;48.298;11.238;2023-08-31T02:32:09;7.15;;;5.50;;
50689;SDS011;71367;48.298;11.238;2023-08-31T02:47:13;6.85;;;5.70;;
50689;SDS011;71367;48.298;11.238;2023-08-31T03:02:17;7.38;;;5.95;;
50689;SDS011;71367;48.298;11.238;2023-08-31T03:17:21;8.05;;;6.30;;
50689;SDS011;71367;48.298;11.238;2023-08-31T03:32:25;8.85;;;6.82;;
50689;SDS011;71367;48.298;11.238;2023-08-31T03:47:28;9.68;;;6.80;;
50689;SDS011;71367;48.298;11.238;2023-08-31T04:02:33;10.48;;;6.57;;
50689;SDS011;71367;48.298;11.238;2023-08-31T04:17:37;11.55;;;6.45;;
50689;SDS011;71367;48.298;11.238;2023-08-31T04:32:41;9.50;;;5.47;;
50689;SDS011;71367;48.298;11.238;2023-08-31T04:47:47;7.97;;;5.70;;
50689;SDS011;71367;48.298;11.238;2023-08-31T05:02:52;7.72;;;5.20;;
50689;SDS011;71367;48.298;11.238;2023-08-31T05:17:56;7.05;;;5.15;;
50689;SDS011;71367;48.298;11.238;2023-08-31T05:32:59;6.47;;;5.22;;
50689;SDS011;71367;48.298;11.238;2023-08-31T05:48:03;7.53;;;4.85;;
50689;SDS011;71367;48.298;11.238;2023-08-31T06:03:07;6.30;;;4.30;;
50689;SDS011;71367;48.298;11.238;2023-08-31T06:18:12;5.70;;;3.38;;
50689;SDS011;71367;48.298;11.238;2023-08-31T06:33:16;6.07;;;3.13;;
50689;SDS011;71367;48.298;11.238;2023-08-31T06:48:21;6.20;;;3.00;;
50689;SDS011;71367;48.298;11.238;2023-08-31T07:03:25;4.95;;;3.10;;
50689;SDS011;71367;48.298;11.238;2023-08-31T07:18:28;7.90;;;2.85;;
50689;SDS011;71367;48.298;11.238;2023-08-31T07:33:32;4.38;;;2.88;;
50689;SDS011;71367;48.298;11.238;2023-08-31T07:48:38;5.20;;;2.63;;
50689;SDS011;71367;48.298;11.238;2023-08-31T08:03:41;4.32;;;2.38;;
50689;SDS011;71367;48.298;11.238;2023-08-31T08:18:45;5.68;;;2.40;;
50689;SDS011;71367;48.298;11.238;2023-08-31T08:33:48;5.90;;;2.20;;
50689;SDS011;71367;48.298;11.238;2023-08-31T08:48:52;5.95;;;2.42;;
50689;SDS011;71367;48.298;11.238;2023-08-31T09:03:57;7.07;;;2.85;;
50689;SDS011;71367;48.298;11.238;2023-08-31T09:19:00;5.60;;;2.72;;
50689;SDS011;71367;48.298;11.238;2023-08-31T09:34:20;5.93;;;3.08;;
50689;SDS011;71367;48.298;11.238;2023-08-31T09:49:35;8.60;;;2.70;;
50689;SDS011;71367;48.298;11.238;2023-08-31T10:04:41;5.05;;;2.65;;
50689;SDS011;71367;48.298;11.238;2023-08-31T10:19:45;6.22;;;2.50;;
50689;SDS011;71367;48.298;11.238;2023-08-31T10:35:05;8.02;;;3.17;;
50689;SDS011;71367;48.298;11.238;2023-08-31T10:50:22;7.10;;;2.85;;
50689;SDS011;71367;48.298;11.238;2023-08-31T11:05:27;6.55;;;2.30;;
50689;SDS011;71367;48.298;11.238;2023-08-31T11:20:31;5.57;;;2.22;;
50689;SDS011;71367;48.298;11.238;2023-08-31T11:35:35;7.55;;;2.85;;
50689;SDS011;71367;48.298;11.238;2023-08-31T11:50:39;5.85;;;2.40;;
50689;SDS011;71367;48.298;11.238;2023-08-31T12:05:47;9.32;;;2.72;;
50689;SDS011;71367;48.298;11.238;2023-08-31T12:20:51;5.18;;;2.65;;
50689;SDS011;71367;48.298;11.238;2023-08-31T12:35:55;6.25;;;2.60;;
50689;SDS011;71367;48.298;11.238;2023-08-31T12:50:59;3.72;;;1.88;;
50689;SDS011;71367;48.298;11.238;2023-08-31T13:06:03;6.22;;;2.33;;
50689;SDS011;71367;48.298;11.238;2023-08-31T13:21:06;3.88;;;2.08;;
50689;SDS011;71367;48.298;11.238;2023-08-31T13:36:10;6.90;;;2.10;;
50689;SDS011;71367;48.298;11.238;2023-08-31T13:51:14;5.35;;;1.92;;
50689;SDS011;71367;48.298;11.238;2023-08-31T14:06:18;4.18;;;2.10;;
50689;SDS011;71367;48.298;11.238;2023-08-31T14:21:22;4.63;;;1.98;;
50689;SDS011;71367;48.298;11.238;2023-08-31T14:36:29;5.03;;;2.20;;
50689;SDS011;71367;48.298;11.238;2023-08-31T14:51:34;5.00;;;2.30;;
50689;SDS011;71367;48.298;11.238;2023-08-31T15:06:38;7.30;;;2.22;;
50689;SDS011;71367;48.298;11.238;2023-08-31T15:21:43;5.43;;;2.10;;
50689;SDS011;71367;48.298;11.238;2023-08-31T15:36:47;3.97;;;2.05;;
50689;SDS011;71367;48.298;11.238;2023-08-31T15:51:53;6.10;;;2.20;;
50689;SDS011;71367;48.298;11.238;2023-08-31T16:06:56;3.40;;;2.10;;
50689;SDS011;71367;48.298;11.238;2023-08-31T16:22:00;3.38;;;1.90;;
50689;SDS011;71367;48.298;11.238;2023-08-31T16:37:05;4.68;;;2.03;;
50689;SDS011;71367;48.298;11.238;2023-08-31T16:52:09;5.18;;;1.95;;
50689;SDS011;71367;48.298;11.238;2023-08-31T17:07:13;4.80;;;2.00;;
50689;SDS011;71367;48.298;11.238;2023-08-31T17:22:16;6.68;;;2.40;;
50689;SDS011;71367;48.298;11.238;2023-08-31T17:37:19;5.47;;;2.35;;
50689;SDS011;71367;48.298;11.238;2023-08-31T17:52:23;3.88;;;2.10;;
50689;SDS011;71367;48.298;11.238;2023-08-31T18:07:27;8.38;;;2.20;;
50689;SDS011;71367;48.298;11.238;2023-08-31T18:22:31;3.80;;;2.25;;
50689;SDS011;71367;48.298;11.238;2023-08-31T18:37:34;5.20;;;2.42;;
50689;SDS011;71367;48.298;11.238;2023-08-31T18:52:38;4.00;;;2.53;;
50689;SDS011;71367;48.298;11.238;2023-08-31T19:07:42;8.63;;;2.85;;
50689;SDS011;71367;48.298;11.238;2023-08-31T19:22:47;8.07;;;2.70;;
50689;SDS011;71367;48.298;11.238;2023-08-31T19:37:51;3.97;;;2.47;;
50689;SDS011;71367;48.298;11.238;2023-08-31T19:52:56;4.05;;;2.42;;
50689;SDS011;71367;48.298;11.238;2023-08-31T20:08:00;4.13;;;2.70;;
50689;SDS011;71367;48.298;11.238;2023-08-31T20:23:05;5.93;;;2.70;;
50689;SDS011;71367;48.298;11.238;2023-08-31T20:38:08;5.20;;;2.58;;
50689;SDS011;71367;48.298;11.238;2023-08-31T20:53:13;6.13;;;2.92;;
50689;SDS011;71367;48.298;11.238;2023-08-31T21:08:17;5.13;;;2.47;;
50689;SDS011;71367;48.298;11.238;2023-08-31T21:23:21;6.85;;;2.60;;
50689;SDS011;71367;48.298;11.238;2023-08-31T21:38:25;5.43;;;2.75;;
50689;SDS011;71367;48.298;11.238;2023-08-31T21:53:29;6.40;;;2.60;;
50689;SDS011;71367;48.298;11.238;2023-08-31T22:08:33;6.53;;;3.22;;
50689;SDS011;71367;48.298;11.238;2023-08-31T22:23:37;7.30;;;3.10;;
50689;SDS011;71367;48.298;11.238;2023-08-31T22:38:41;5.95;;;3.05;;
50689;SDS011;71367;48.298;11.238;2023-08-31T22:53:44;4.65;;;3.58;;
50689;SDS011;71367;48.298;11.238;2023-08-31T23:08:49;6.15;;;3.88;;
50689;SDS011;71367;48.298;11.238;2023-08-31T23:23:53;6.40;;;3.60;;
50689;SDS011;71367;48.298;11.238;2023-08-31T23:39:12;7.97;;;3.80;;
50689;SDS011;71367;48.298;11.238;2023-08-31T23:54:17;8.75;;;4.20;;
